Time;durP1;ratioP1;P1;durP2;ratioP2;P2;SDS_P1;SDS_P2;PMS_P1;PMS_P2;Temp;Humidity;BMP_temperature;BMP_pressure;BME280_temperature;BME280_humidity;BME280_pressure;Samples;Min_cycle;Max_cycle;Signal;HPM_P1;HPM_P2
2021/08/19 00:01:36;;;;;;;5.33;4.93;;;17.70;99.90;;;;;;5031319;28;20209;-70
2021/08/19 00:04:03;;;;;;;5.53;5.13;;;17.70;99.90;;;;;;5031363;28;20260;-69
2021/08/19 00:06:29;;;;;;;5.00;4.70;;;17.70;99.90;;;;;;5031180;28;20314;-68
2021/08/19 00:08:56;;;;;;;5.87;5.30;;;17.70;99.90;;;;;;5031152;28;20228;-68
2021/08/19 00:11:23;;;;;;;6.13;5.63;;;17.70;99.90;;;;;;5031129;28;20582;-68
2021/08/19 00:13:49;;;;;;;6.77;6.17;;;17.80;99.90;;;;;;5030859;28;20425;-68
2021/08/19 00:16:17;;;;;;;6.87;6.20;;;17.70;99.90;;;;;;5030924;28;20213;-68
2021/08/19 00:18:44;;;;;;;6.43;6.03;;;17.70;99.90;;;;;;5031347;28;20262;-68
2021/08/19 00:21:10;;;;;;;6.53;6.13;;;17.70;99.90;;;;;;5030939;28;20205;-68
2021/08/19 00:23:37;;;;;;;7.40;6.80;;;17.70;99.90;;;;;;5030885;28;20275;-70
2021/08/19 00:26:05;;;;;;;6.73;6.23;;;17.70;99.90;;;;;;5030597;28;20267;-71
2021/08/19 00:28:32;;;;;;;7.20;6.47;;;17.70;99.90;;;;;;5030873;28;20236;-71
2021/08/19 00:30:59;;;;;;;7.40;6.90;;;17.70;99.90;;;;;;5030608;28;20482;-70
2021/08/19 00:33:27;;;;;;;6.73;6.33;;;17.70;99.90;;;;;;5030443;28;20208;-70
2021/08/19 00:35:54;;;;;;;7.00;6.47;;;17.70;99.90;;;;;;5030920;28;20267;-70
2021/08/19 00:38:21;;;;;;;8.03;7.33;;;17.70;99.90;;;;;;5030380;28;20216;-71
2021/08/19 00:40:48;;;;;;;7.43;6.93;;;17.70;99.90;;;;;;5030456;28;20216;-71
2021/08/19 00:43:14;;;;;;;7.93;7.43;;;17.70;99.90;;;;;;5030341;28;20208;-71
2021/08/19 00:45:41;;;;;;;8.70;8.00;;;17.70;99.90;;;;;;5030322;28;20208;-71
2021/08/19 00:48:08;;;;;;;8.40;7.70;;;17.70;99.90;;;;;;5030362;28;20220;-69
2021/08/19 00:50:38;;;;;;;8.80;8.10;;;17.70;99.90;;;;;;5030356;28;20224;-69
2021/08/19 00:53:05;;;;;;;9.20;8.30;;;17.70;99.90;;;;;;5029828;28;20311;-70
2021/08/19 00:55:31;;;;;;;9.03;8.33;;;17.70;99.90;;;;;;5030176;28;20212;-71
2021/08/19 00:57:58;;;;;;;9.33;8.13;;;17.70;99.90;;;;;;5029988;28;20689;-70
2021/08/19 01:00:25;;;;;;;8.80;8.00;;;17.60;99.90;;;;;;5029644;28;20237;-70
2021/08/19 01:02:57;;;;;;;9.23;8.53;;;17.70;99.90;;;;;;5029736;28;20205;-70
2021/08/19 01:05:27;;;;;;;11.37;8.73;;;17.60;99.90;;;;;;5029878;28;20200;-69
2021/08/19 01:07:55;;;;;;;8.43;7.60;;;17.60;99.90;;;;;;5030206;28;20257;-70
2021/08/19 01:10:22;;;;;;;8.30;7.50;;;17.60;99.90;;;;;;5029973;28;20247;-70
2021/08/19 01:12:48;;;;;;;9.30;8.60;;;17.60;99.90;;;;;;5029847;28;20614;-70
2021/08/19 01:15:15;;;;;;;8.93;8.20;;;17.60;99.90;;;;;;5029807;28;20208;-69
2021/08/19 01:17:42;;;;;;;9.13;8.27;;;17.60;99.90;;;;;;5030292;28;20292;-70
2021/08/19 01:20:10;;;;;;;9.67;8.63;;;17.60;99.90;;;;;;5029691;28;20610;-69
2021/08/19 01:22:36;;;;;;;9.20;8.40;;;17.60;99.90;;;;;;5029678;28;20288;-70
2021/08/19 01:25:06;;;;;;;9.90;9.00;;;17.60;99.90;;;;;;5029220;28;20259;-69
2021/08/19 01:27:34;;;;;;;8.67;7.97;;;17.60;99.90;;;;;;5028965;28;20271;-69
2021/08/19 01:30:01;;;;;;;8.80;8.10;;;17.60;99.90;;;;;;5029604;28;20240;-69
2021/08/19 01:32:32;;;;;;;9.10;8.43;;;17.60;99.90;;;;;;5029013;28;20240;-69
2021/08/19 01:34:58;;;;;;;9.03;8.33;;;17.60;99.90;;;;;;5029557;28;20193;-69
2021/08/19 01:37:25;;;;;;;8.73;8.03;;;17.60;99.90;;;;;;5029256;28;20244;-69
2021/08/19 01:39:52;;;;;;;9.20;8.30;;;17.60;99.90;;;;;;5029265;28;20220;-68
2021/08/19 01:42:19;;;;;;;7.97;7.37;;;17.60;99.90;;;;;;5029210;28;20216;-69
2021/08/19 01:44:47;;;;;;;8.37;7.60;;;17.60;99.90;;;;;;5029520;28;20200;-70
2021/08/19 01:47:14;;;;;;;8.37;7.77;;;17.70;99.90;;;;;;5029252;28;20290;-70
2021/08/19 01:49:42;;;;;;;9.23;8.50;;;17.60;99.90;;;;;;5028833;28;20249;-70
2021/08/19 01:52:10;;;;;;;8.77;7.97;;;17.60;99.90;;;;;;5028996;28;20673;-70
2021/08/19 01:54:37;;;;;;;7.87;7.33;;;17.60;99.90;;;;;;5029203;28;20205;-70
2021/08/19 01:57:04;;;;;;;7.63;7.00;;;17.60;99.90;;;;;;5029032;28;20209;-70
2021/08/19 01:59:31;;;;;;;8.03;7.50;;;17.60;99.90;;;;;;5028746;28;20478;-70
2021/08/19 02:02:00;;;;;;;7.87;7.27;;;17.60;99.90;;;;;;5029013;28;20266;-70
2021/08/19 02:04:27;;;;;;;8.33;7.73;;;17.60;99.90;;;;;;5028708;28;20208;-70
2021/08/19 02:06:53;;;;;;;8.57;7.87;;;17.60;99.90;;;;;;5028718;28;20278;-70
2021/08/19 02:09:20;;;;;;;8.00;7.40;;;17.60;99.90;;;;;;5028676;28;20232;-70
2021/08/19 02:11:47;;;;;;;7.33;6.77;;;17.50;99.90;;;;;;5028518;28;20572;-69
2021/08/19 02:14:14;;;;;;;7.67;6.97;;;17.60;99.90;;;;;;5028290;28;20602;-69
2021/08/19 02:16:40;;;;;;;7.60;7.00;;;17.60;99.90;;;;;;5028822;28;20208;-69
2021/08/19 02:19:08;;;;;;;7.83;7.23;;;17.50;99.90;;;;;;5029093;28;20209;-69
2021/08/19 02:21:35;;;;;;;8.03;7.30;;;17.50;99.90;;;;;;5028928;28;20251;-70
2021/08/19 02:24:02;;;;;;;7.50;6.77;;;17.50;99.90;;;;;;5028533;28;20204;-69
2021/08/19 02:26:29;;;;;;;7.67;7.10;;;17.40;99.90;;;;;;5028682;28;20215;-69
2021/08/19 02:28:55;;;;;;;7.90;7.30;;;17.50;99.90;;;;;;5028568;28;20338;-70
2021/08/19 02:31:22;;;;;;;7.60;7.00;;;17.40;99.90;;;;;;5028443;28;20232;-70
2021/08/19 02:33:49;;;;;;;7.27;6.77;;;17.40;99.90;;;;;;5028466;28;20657;-70
2021/08/19 02:36:17;;;;;;;7.97;7.20;;;17.40;99.90;;;;;;5028382;28;20205;-70
2021/08/19 02:38:43;;;;;;;7.17;6.53;;;17.40;99.90;;;;;;5028427;28;20207;-70
2021/08/19 02:41:10;;;;;;;7.97;7.27;;;17.40;99.90;;;;;;5028924;28;20279;-70
2021/08/19 02:43:42;;;;;;;7.60;7.00;;;17.40;99.90;;;;;;5028742;28;20250;-70
2021/08/19 02:46:09;;;;;;;7.20;6.60;;;17.40;99.90;;;;;;5028705;28;20216;-70
2021/08/19 02:48:35;;;;;;;7.97;6.93;;;17.30;99.90;;;;;;5028379;28;20295;-70
2021/08/19 02:51:02;;;;;;;6.83;6.33;;;17.30;99.90;;;;;;5028587;28;20262;-70
2021/08/19 02:53:30;;;;;;;6.77;6.27;;;17.30;99.90;;;;;;5028428;28;20209;-70
2021/08/19 02:55:57;;;;;;;7.10;6.50;;;17.30;99.90;;;;;;5028408;28;20251;-69
2021/08/19 02:58:24;;;;;;;6.97;6.47;;;17.20;99.90;;;;;;5028120;28;20304;-69
2021/08/19 03:00:51;;;;;;;6.73;6.20;;;17.20;99.90;;;;;;5028329;28;20241;-69
2021/08/19 03:03:18;;;;;;;7.40;6.70;;;17.20;99.90;;;;;;5028288;28;20603;-69
2021/08/19 03:05:44;;;;;;;7.93;7.33;;;17.20;99.90;;;;;;5028043;28;20212;-69
2021/08/19 03:08:11;;;;;;;7.90;7.30;;;17.20;99.90;;;;;;5028028;28;20212;-70
2021/08/19 03:10:39;;;;;;;6.80;6.30;;;17.20;99.90;;;;;;5027655;28;20268;-69
2021/08/19 03:13:06;;;;;;;7.70;7.10;;;17.20;99.90;;;;;;5028476;28;20232;-70
2021/08/19 03:15:32;;;;;;;7.57;6.43;;;17.20;99.90;;;;;;5027477;28;20671;-69
2021/08/19 03:17:59;;;;;;;7.03;6.53;;;17.20;99.90;;;;;;5028380;28;20208;-69
2021/08/19 03:20:25;;;;;;;7.20;6.50;;;17.20;99.90;;;;;;5028123;28;20209;-70
2021/08/19 03:22:52;;;;;;;7.27;6.77;;;17.20;99.90;;;;;;5028080;28;20209;-70
2021/08/19 03:25:19;;;;;;;7.63;6.97;;;17.20;99.90;;;;;;5027956;28;20209;-70
2021/08/19 03:27:47;;;;;;;7.93;7.33;;;17.20;99.90;;;;;;5028004;28;20287;-69
2021/08/19 03:30:14;;;;;;;7.67;6.97;;;17.20;99.90;;;;;;5027816;28;20233;-69
2021/08/19 03:32:40;;;;;;;7.73;7.13;;;17.20;99.90;;;;;;5027834;28;20236;-69
2021/08/19 03:35:08;;;;;;;8.13;7.33;;;17.10;99.90;;;;;;5027758;28;20757;-69
2021/08/19 03:37:35;;;;;;;7.63;6.93;;;17.10;99.90;;;;;;5027735;28;20212;-71
2021/08/19 03:40:03;;;;;;;7.60;7.07;;;17.10;99.90;;;;;;5027819;28;20208;-71
2021/08/19 03:42:30;;;;;;;8.20;7.60;;;17.10;99.90;;;;;;5027526;28;20577;-70
2021/08/19 03:44:58;;;;;;;7.63;7.03;;;17.10;99.90;;;;;;5028030;28;20549;-69
2021/08/19 03:47:26;;;;;;;8.13;6.47;;;17.10;99.90;;;;;;5028913;28;20212;-69
2021/08/19 03:49:53;;;;;;;7.03;6.43;;;17.10;99.90;;;;;;5031417;28;20263;-70
2021/08/19 03:52:20;;;;;;;7.33;6.63;;;17.10;99.90;;;;;;5031331;28;20311;-70
2021/08/19 03:54:46;;;;;;;8.73;6.93;;;17.10;99.90;;;;;;5031694;28;20201;-70
2021/08/19 03:57:13;;;;;;;7.90;6.40;;;17.00;99.90;;;;;;5031162;28;20559;-70
2021/08/19 03:59:40;;;;;;;7.43;6.90;;;17.00;99.90;;;;;;5031001;28;20314;-70
2021/08/19 04:02:08;;;;;;;7.20;6.60;;;17.00;99.90;;;;;;5031252;28;20201;-70
2021/08/19 04:04:34;;;;;;;7.27;6.67;;;17.00;99.90;;;;;;5031276;28;20216;-70
2021/08/19 04:07:02;;;;;;;6.40;5.93;;;17.00;99.90;;;;;;5030911;28;20710;-69
2021/08/19 04:09:29;;;;;;;5.47;5.00;;;17.00;99.90;;;;;;5031047;28;21078;-69
2021/08/19 04:11:55;;;;;;;5.63;5.13;;;16.90;99.90;;;;;;5031275;28;20282;-69
2021/08/19 04:14:22;;;;;;;4.77;4.47;;;16.90;99.90;;;;;;5031085;28;20205;-69
2021/08/19 04:16:49;;;;;;;5.03;4.63;;;16.90;99.90;;;;;;5031129;28;20655;-69
2021/08/19 04:19:16;;;;;;;4.53;4.17;;;16.80;99.90;;;;;;5031121;28;20264;-69
2021/08/19 04:21:43;;;;;;;5.03;4.57;;;16.70;99.90;;;;;;5030991;28;20244;-71
2021/08/19 04:24:10;;;;;;;4.93;4.63;;;16.70;99.90;;;;;;5031069;28;20375;-70
2021/08/19 04:26:36;;;;;;;5.17;4.70;;;16.70;99.90;;;;;;5030372;28;20781;-70
2021/08/19 04:29:03;;;;;;;5.00;4.60;;;16.60;99.90;;;;;;5030876;28;20225;-71
2021/08/19 04:31:30;;;;;;;6.27;5.67;;;16.60;99.90;;;;;;5030550;28;20200;-70
2021/08/19 04:33:58;;;;;;;6.03;5.53;;;16.50;99.90;;;;;;5030518;28;20251;-70
2021/08/19 04:36:26;;;;;;;5.43;5.03;;;16.50;99.90;;;;;;5030612;28;20263;-70
2021/08/19 04:38:52;;;;;;;6.70;5.93;;;16.50;99.90;;;;;;5030490;28;20238;-70
2021/08/19 04:41:19;;;;;;;5.67;5.17;;;16.40;99.90;;;;;;5029933;28;20240;-69
2021/08/19 04:43:46;;;;;;;5.33;4.97;;;16.40;99.90;;;;;;5030839;28;20255;-69
2021/08/19 04:46:12;;;;;;;5.77;5.33;;;16.40;99.90;;;;;;5030524;28;20645;-70
2021/08/19 04:48:39;;;;;;;6.23;5.73;;;16.40;99.90;;;;;;5030277;28;20233;-69
2021/08/19 04:51:06;;;;;;;5.90;5.50;;;16.40;99.90;;;;;;5030107;28;20294;-69
2021/08/19 04:53:33;;;;;;;5.60;5.20;;;16.40;99.90;;;;;;5030436;28;20259;-69
2021/08/19 04:56:00;;;;;;;6.33;5.93;;;16.30;99.90;;;;;;5030285;28;20547;-71
2021/08/19 04:58:28;;;;;;;6.13;5.73;;;16.30;99.90;;;;;;5029355;28;20307;-71
2021/08/19 05:00:55;;;;;;;7.23;6.73;;;16.30;99.90;;;;;;5029754;28;20197;-71
2021/08/19 05:03:21;;;;;;;7.60;6.90;;;16.30;99.90;;;;;;5029936;28;20205;-69
2021/08/19 05:05:48;;;;;;;8.03;7.43;;;16.30;99.90;;;;;;5030300;28;20263;-69
2021/08/19 05:08:14;;;;;;;7.63;7.03;;;16.20;99.90;;;;;;5030036;28;20239;-69
2021/08/19 05:10:42;;;;;;;8.20;7.60;;;16.20;99.90;;;;;;5029649;28;20232;-69
2021/08/19 05:13:09;;;;;;;8.93;8.23;;;16.10;99.90;;;;;;5029993;28;20204;-70
2021/08/19 05:15:36;;;;;;;9.37;8.57;;;16.10;99.90;;;;;;5029490;28;20627;-70
2021/08/19 05:18:02;;;;;;;9.73;8.83;;;16.10;99.90;;;;;;5029829;28;20254;-69
2021/08/19 05:20:29;;;;;;;8.53;7.73;;;16.10;99.90;;;;;;5029848;28;20208;-70
2021/08/19 05:22:55;;;;;;;10.33;7.83;;;16.10;99.90;;;;;;5029649;28;20236;-70
2021/08/19 05:25:22;;;;;;;9.00;8.10;;;16.10;99.90;;;;;;5029779;28;20213;-69
2021/08/19 05:27:50;;;;;;;9.30;8.33;;;16.10;99.90;;;;;;5029590;28;20282;-69
2021/08/19 05:30:17;;;;;;;8.40;7.70;;;16.20;99.90;;;;;;5029556;28;20233;-69
2021/08/19 05:32:43;;;;;;;8.60;7.97;;;16.20;99.90;;;;;;5029133;28;20258;-69
2021/08/19 05:35:11;;;;;;;8.73;8.03;;;16.20;99.90;;;;;;5029450;28;20275;-69
2021/08/19 05:37:37;;;;;;;8.80;7.67;;;16.20;99.90;;;;;;5029321;28;20205;-69
2021/08/19 05:40:05;;;;;;;8.03;7.30;;;16.20;99.90;;;;;;5029375;28;20205;-69
2021/08/19 05:42:31;;;;;;;8.03;7.33;;;16.20;99.90;;;;;;5029121;28;20209;-70
2021/08/19 05:44:59;;;;;;;8.73;7.33;;;16.30;99.90;;;;;;5029170;28;20721;-68
2021/08/19 05:47:26;;;;;;;7.73;7.13;;;16.30;99.90;;;;;;5028704;28;20255;-69
2021/08/19 05:49:52;;;;;;;7.97;7.37;;;16.30;99.90;;;;;;5043227;28;20227;-71
2021/08/19 05:52:19;;;;;;;7.50;6.97;;;16.30;99.90;;;;;;5041974;28;20216;-70
2021/08/19 05:54:46;;;;;;;6.87;6.27;;;16.40;99.90;;;;;;5032089;28;20201;-70
2021/08/19 05:57:12;;;;;;;9.43;6.83;;;16.40;99.90;;;;;;5041129;28;20200;-70
2021/08/19 05:59:40;;;;;;;7.07;6.37;;;16.40;99.90;;;;;;5036830;28;20228;-70
2021/08/19 06:02:09;;;;;;;6.83;6.13;;;16.50;99.90;;;;;;5029892;28;20607;-70
2021/08/19 06:04:38;;;;;;;6.50;6.10;;;16.50;99.90;;;;;;5040402;28;20583;-70
2021/08/19 06:07:05;;;;;;;6.20;5.60;;;16.60;99.90;;;;;;5045005;28;20670;-70
2021/08/19 06:09:32;;;;;;;7.53;6.80;;;16.60;99.90;;;;;;5045105;28;20641;-70
2021/08/19 06:11:59;;;;;;;6.80;6.30;;;16.60;99.90;;;;;;5044897;28;20208;-70
2021/08/19 06:14:25;;;;;;;6.37;5.83;;;16.60;99.90;;;;;;5044649;28;20222;-70
2021/08/19 06:16:52;;;;;;;8.07;7.40;;;16.60;99.90;;;;;;5044954;28;20637;-73
2021/08/19 06:19:20;;;;;;;6.43;6.00;;;16.70;99.90;;;;;;5040929;28;20200;-72
2021/08/19 06:21:47;;;;;;;6.83;5.93;;;16.80;99.90;;;;;;5027468;28;20205;-70
2021/08/19 06:24:13;;;;;;;5.97;5.47;;;16.80;99.90;;;;;;5024475;28;20266;-70
2021/08/19 06:26:40;;;;;;;6.60;6.00;;;16.80;99.90;;;;;;5024759;28;20726;-70
2021/08/19 06:29:08;;;;;;;6.00;5.40;;;16.90;99.90;;;;;;5024718;28;20686;-70
2021/08/19 06:31:34;;;;;;;6.20;5.60;;;16.90;99.90;;;;;;5027176;28;20268;-68
2021/08/19 06:34:01;;;;;;;8.53;6.07;;;16.90;99.90;;;;;;5043466;28;20744;-70
2021/08/19 06:36:29;;;;;;;7.73;6.47;;;16.90;99.90;;;;;;5044543;28;20247;-70
2021/08/19 06:38:55;;;;;;;6.73;6.13;;;16.90;99.90;;;;;;5044804;28;20246;-70
2021/08/19 06:41:24;;;;;;;6.93;5.53;;;17.00;99.90;;;;;;5031745;28;20244;-70
2021/08/19 06:43:50;;;;;;;6.50;6.00;;;17.00;99.90;;;;;;5027555;28;20204;-70
2021/08/19 06:46:17;;;;;;;6.47;5.97;;;17.10;99.90;;;;;;5027795;28;20212;-70
2021/08/19 06:48:44;;;;;;;5.87;5.47;;;17.10;99.90;;;;;;5027747;28;20278;-70
2021/08/19 06:51:10;;;;;;;6.73;6.13;;;17.10;99.90;;;;;;5027777;28;20754;-70
2021/08/19 06:53:38;;;;;;;7.57;5.93;;;17.10;99.90;;;;;;5027966;28;20251;-70
2021/08/19 06:56:05;;;;;;;8.77;6.30;;;17.20;99.90;;;;;;5028439;28;20208;-70
2021/08/19 06:58:32;;;;;;;6.90;6.30;;;17.20;99.90;;;;;;5027620;28;20262;-69
2021/08/19 07:00:58;;;;;;;7.23;6.57;;;17.20;99.90;;;;;;5027892;28;20197;-69
2021/08/19 07:03:26;;;;;;;7.60;5.97;;;17.10;99.90;;;;;;5027950;28;20212;-69
2021/08/19 07:05:53;;;;;;;7.70;6.40;;;17.10;99.90;;;;;;5028122;28;20213;-70
2021/08/19 07:08:19;;;;;;;7.17;6.43;;;17.10;99.90;;;;;;5027990;28;20267;-70
2021/08/19 07:10:47;;;;;;;8.20;7.13;;;17.20;99.90;;;;;;5027605;28;20233;-71
2021/08/19 07:13:14;;;;;;;8.30;6.13;;;17.20;99.90;;;;;;5027465;28;20650;-71
2021/08/19 07:15:41;;;;;;;6.13;5.70;;;17.20;99.90;;;;;;5026670;28;20212;-70
2021/08/19 07:18:08;;;;;;;6.80;6.07;;;17.30;99.90;;;;;;5027079;28;20216;-70
2021/08/19 07:20:35;;;;;;;7.10;6.40;;;17.30;99.90;;;;;;5026615;28;20208;-70
2021/08/19 07:23:02;;;;;;;6.73;6.10;;;17.30;99.90;;;;;;5028772;28;20676;-70
2021/08/19 07:25:28;;;;;;;6.60;6.10;;;17.30;99.90;;;;;;5030516;28;20212;-73
2021/08/19 07:27:57;;;;;;;9.53;5.77;;;17.30;99.90;;;;;;5035667;28;20219;-71
2021/08/19 07:30:23;;;;;;;6.53;5.93;;;17.30;99.90;;;;;;5049730;28;20243;-71
2021/08/19 07:32:50;;;;;;;12.23;5.80;;;17.30;99.90;;;;;;5050248;28;20273;-70
2021/08/19 07:35:17;;;;;;;6.43;5.83;;;17.30;99.90;;;;;;5050603;28;20407;-71
2021/08/19 07:37:48;;;;;;;6.80;6.10;;;17.40;99.90;;;;;;5050398;28;20208;-70
2021/08/19 07:40:15;;;;;;;7.17;6.00;;;17.50;99.90;;;;;;5049976;28;20298;-71
2021/08/19 07:42:43;;;;;;;6.73;5.37;;;17.50;99.90;;;;;;5050090;28;20265;-71
2021/08/19 07:45:12;;;;;;;6.00;5.40;;;17.50;99.90;;;;;;5051480;28;20307;-71
2021/08/19 07:47:38;;;;;;;8.80;5.03;;;17.50;99.90;;;;;;5051020;28;20208;-71
2021/08/19 07:50:06;;;;;;;7.97;5.47;;;17.60;99.90;;;;;;5051249;28;20223;-71
2021/08/19 07:52:33;;;;;;;6.37;5.77;;;17.50;99.90;;;;;;5051177;28;20989;-72
2021/08/19 07:55:00;;;;;;;6.10;5.50;;;17.50;99.90;;;;;;5051561;28;20250;-72
2021/08/19 07:57:26;;;;;;;8.03;5.40;;;17.50;99.90;;;;;;5051348;28;20250;-71
2021/08/19 07:59:53;;;;;;;5.93;5.40;;;17.50;99.90;;;;;;5050947;28;20655;-71
2021/08/19 08:02:21;;;;;;;5.47;4.90;;;17.50;99.90;;;;;;5050982;28;20208;-71
2021/08/19 08:04:48;;;;;;;5.97;5.50;;;17.50;99.90;;;;;;5050855;28;20554;-71
2021/08/19 08:07:15;;;;;;;7.13;5.33;;;17.60;99.90;;;;;;5051209;28;20208;-71
2021/08/19 08:09:41;;;;;;;7.30;5.40;;;17.60;99.90;;;;;;5050727;28;20239;-72
2021/08/19 08:12:08;;;;;;;5.57;5.17;;;17.50;99.90;;;;;;5050464;28;20232;-71
2021/08/19 08:14:35;;;;;;;16.13;6.00;;;17.50;99.90;;;;;;5050965;28;20213;-71
2021/08/19 08:17:02;;;;;;;5.50;4.90;;;17.60;99.90;;;;;;5050421;28;20200;-71
2021/08/19 08:19:30;;;;;;;6.13;5.53;;;17.60;99.90;;;;;;5050564;28;20728;-71
2021/08/19 08:21:57;;;;;;;6.03;5.40;;;17.60;99.90;;;;;;5050965;28;20321;-71
2021/08/19 08:24:23;;;;;;;5.37;4.97;;;17.60;99.90;;;;;;5050931;28;20212;-71
2021/08/19 08:26:50;;;;;;;5.13;4.73;;;17.60;99.90;;;;;;5050587;28;20269;-71
2021/08/19 08:29:19;;;;;;;7.23;5.60;;;17.60;99.90;;;;;;5050377;28;20243;-71
2021/08/19 08:31:46;;;;;;;5.47;5.07;;;17.60;99.90;;;;;;5050384;28;20243;-71
2021/08/19 08:34:12;;;;;;;5.37;4.97;;;17.60;99.90;;;;;;5050513;28;20214;-71
2021/08/19 08:36:40;;;;;;;6.17;5.43;;;17.70;99.90;;;;;;5050572;28;20239;-71
2021/08/19 08:39:07;;;;;;;6.00;5.30;;;17.80;99.90;;;;;;5049284;28;20204;-71
2021/08/19 08:41:34;;;;;;;5.33;4.93;;;17.80;99.90;;;;;;5043283;28;20208;-71
2021/08/19 08:44:01;;;;;;;5.77;5.27;;;17.80;99.90;;;;;;5050334;28;20212;-71
2021/08/19 08:46:28;;;;;;;5.67;5.27;;;17.80;99.90;;;;;;5050118;28;20228;-71
2021/08/19 08:48:57;;;;;;;5.93;5.33;;;17.80;99.90;;;;;;5050345;28;20266;-71
2021/08/19 08:51:26;;;;;;;5.10;4.60;;;17.80;99.90;;;;;;5049848;28;20244;-71
2021/08/19 08:53:54;;;;;;;6.23;5.10;;;17.90;99.90;;;;;;5050385;28;20208;-71
2021/08/19 08:56:20;;;;;;;5.20;4.47;;;17.90;99.90;;;;;;5050238;28;20253;-71
2021/08/19 08:58:47;;;;;;;7.27;4.53;;;18.00;99.90;;;;;;5049963;28;20236;-71
2021/08/19 09:01:14;;;;;;;9.50;4.67;;;18.00;99.90;;;;;;5049531;28;20784;-71
2021/08/19 09:03:40;;;;;;;6.57;5.00;;;18.00;99.90;;;;;;5049800;28;20203;-71
2021/08/19 09:06:07;;;;;;;5.10;4.70;;;18.00;99.90;;;;;;5049923;28;20266;-71
2021/08/19 09:08:33;;;;;;;4.77;4.37;;;18.10;99.90;;;;;;5050023;28;20204;-71
2021/08/19 09:11:03;;;;;;;7.40;4.87;;;18.10;99.90;;;;;;5049884;28;20228;-71
2021/08/19 09:13:31;;;;;;;5.17;4.70;;;18.10;99.90;;;;;;5049662;28;20271;-71
2021/08/19 09:16:14;;;;;;;9.07;4.83;;;18.20;99.90;;;;;;5049867;28;20243;-71
2021/08/19 09:18:40;;;;;;;8.60;5.07;;;18.20;99.90;;;;;;5049721;28;20192;-71
2021/08/19 09:21:18;;;;;;;5.03;4.53;;;18.30;99.90;;;;;;5049627;28;20212;-71
2021/08/19 09:23:45;;;;;;;5.97;4.73;;;18.30;99.90;;;;;;5049527;28;20196;-71
2021/08/19 09:26:26;;;;;;;7.80;5.40;;;18.30;99.90;;;;;;5045064;28;20220;-73
2021/08/19 09:29:19;;;;;;;8.00;5.53;;;18.20;99.90;;;;;;5045886;28;20196;-73
2021/08/19 09:31:47;;;;;;;9.30;6.13;;;18.20;99.90;;;;;;5045298;28;20271;-71
2021/08/19 09:34:14;;;;;;;6.13;5.20;;;18.20;99.90;;;;;;5045790;28;20208;-71
2021/08/19 09:36:41;;;;;;;5.00;4.17;;;18.10;99.90;;;;;;5045194;28;20522;-71
2021/08/19 09:39:07;;;;;;;5.43;4.43;;;18.10;99.90;;;;;;5029271;28;20232;-71
2021/08/19 09:41:50;;;;;;;5.33;4.90;;;18.10;99.90;;;;;;5026024;28;20240;-71
2021/08/19 09:44:32;;;;;;;5.40;4.90;;;18.00;99.90;;;;;;5025420;28;20201;-71
2021/08/19 09:46:59;;;;;;;5.70;5.20;;;18.00;99.90;;;;;;5025592;28;20614;-71
2021/08/19 09:49:29;;;;;;;5.47;4.97;;;17.90;99.90;;;;;;5025383;28;20264;-71
2021/08/19 09:52:04;;;;;;;5.47;4.70;;;18.00;99.90;;;;;;5025454;28;20233;-71
2021/08/19 09:54:32;;;;;;;5.30;4.73;;;18.00;99.90;;;;;;5025382;28;20204;-71
2021/08/19 09:57:00;;;;;;;5.03;4.53;;;18.10;99.90;;;;;;5025115;28;20236;-72
2021/08/19 09:59:28;;;;;;;8.37;5.10;;;18.10;99.90;;;;;;5024776;28;20298;-72
2021/08/19 10:01:57;;;;;;;5.40;4.90;;;18.20;99.90;;;;;;5025047;28;20212;-72
2021/08/19 10:04:25;;;;;;;5.67;5.23;;;18.30;99.90;;;;;;5025219;28;20208;-71
2021/08/19 10:06:52;;;;;;;5.33;4.90;;;18.30;99.90;;;;;;5025163;28;20351;-71
2021/08/19 10:09:19;;;;;;;5.93;4.80;;;18.30;99.90;;;;;;5025254;28;20209;-71
2021/08/19 10:11:48;;;;;;;9.37;5.17;;;18.40;99.90;;;;;;5024994;28;20237;-71
2021/08/19 10:14:18;;;;;;;5.43;5.03;;;18.40;99.90;;;;;;5024755;28;20270;-71
2021/08/19 10:16:45;;;;;;;5.60;5.10;;;18.50;99.90;;;;;;5025040;28;20244;-71
2021/08/19 10:19:15;;;;;;;5.90;5.13;;;18.60;99.90;;;;;;5024964;28;20212;-71
2021/08/19 10:21:46;;;;;;;5.27;4.83;;;18.50;99.90;;;;;;5025054;28;20212;-71
2021/08/19 10:24:13;;;;;;;8.00;6.03;;;18.60;99.90;;;;;;5024867;28;20298;-71
2021/08/19 10:26:40;;;;;;;5.40;5.00;;;18.50;99.90;;;;;;5024658;28;20233;-71
2021/08/19 10:29:07;;;;;;;7.10;5.63;;;18.50;99.90;;;;;;5025327;28;20240;-71
2021/08/19 10:31:44;;;;;;;6.93;6.30;;;18.50;99.90;;;;;;5025004;28;20294;-71
2021/08/19 10:34:12;;;;;;;5.93;5.30;;;18.50;99.90;;;;;;5025040;28;20228;-71
2021/08/19 10:36:55;;;;;;;6.17;5.77;;;18.60;99.90;;;;;;5024235;28;20671;-71
2021/08/19 10:39:43;;;;;;;6.33;5.73;;;18.80;99.90;;;;;;5024324;28;20300;-71
2021/08/19 10:42:26;;;;;;;6.37;5.60;;;18.90;99.90;;;;;;5024536;28;20204;-71
2021/08/19 10:44:52;;;;;;;9.03;6.10;;;19.10;99.90;;;;;;5021414;28;20267;-71
2021/08/19 10:47:39;;;;;;;5.93;5.53;;;19.00;99.90;;;;;;5024396;28;20326;-71
2021/08/19 10:50:26;;;;;;;6.23;5.73;;;19.00;99.90;;;;;;5024613;28;20262;-71
2021/08/19 10:52:53;;;;;;;5.90;5.37;;;19.00;99.90;;;;;;5024241;28;20235;-70
2021/08/19 10:55:20;;;;;;;12.60;5.77;;;19.00;99.90;;;;;;5024613;28;20204;-71
2021/08/19 10:57:49;;;;;;;6.00;5.20;;;19.10;99.90;;;;;;5029374;28;20200;-71
2021/08/19 11:00:16;;;;;;;6.77;4.33;;;19.10;99.90;;;;;;5037485;28;20236;-71
2021/08/19 11:02:45;;;;;;;7.90;5.30;;;19.30;99.90;;;;;;5038894;28;20285;-71
2021/08/19 11:05:14;;;;;;;5.00;4.60;;;19.40;99.90;;;;;;5037719;28;20717;-71
2021/08/19 11:07:51;;;;;;;6.93;4.43;;;19.50;99.90;;;;;;5041944;28;20239;-71
2021/08/19 11:10:23;;;;;;;5.77;4.27;;;19.60;99.90;;;;;;5048854;28;20196;-70
2021/08/19 11:12:50;;;;;;;4.83;4.43;;;19.60;99.90;;;;;;5047718;28;20325;-71
2021/08/19 11:15:16;;;;;;;4.93;4.00;;;19.60;99.90;;;;;;5034742;28;20617;-71
2021/08/19 11:17:56;;;;;;;7.90;4.33;;;19.40;99.90;;;;;;5028306;28;20262;-70
2021/08/19 11:20:25;;;;;;;4.57;4.17;;;19.50;99.90;;;;;;5028396;28;20235;-71
2021/08/19 11:23:06;;;;;;;5.23;4.23;;;19.50;99.90;;;;;;5028268;28;20251;-70
2021/08/19 11:25:34;;;;;;;5.90;3.77;;;19.40;99.90;;;;;;5027934;28;20247;-71
2021/08/19 11:28:09;;;;;;;3.93;3.57;;;19.50;99.90;;;;;;5043008;28;20559;-70
2021/08/19 11:30:37;;;;;;;4.87;3.77;;;19.60;99.90;;;;;;5047669;28;20643;-70
2021/08/19 11:33:14;;;;;;;4.90;3.70;;;19.70;99.90;;;;;;5047775;28;20317;-70
2021/08/19 11:35:41;;;;;;;4.33;3.70;;;19.70;99.90;;;;;;5047676;28;20211;-70
2021/08/19 11:38:13;;;;;;;6.60;3.53;;;19.80;99.90;;;;;;5047461;28;20736;-70
2021/08/19 11:40:42;;;;;;;3.87;3.47;;;19.90;99.90;;;;;;5047752;28;20237;-70
2021/08/19 11:43:22;;;;;;;3.30;3.10;;;20.00;99.90;;;;;;5047982;28;20243;-71
2021/08/19 11:45:49;;;;;;;3.30;3.00;;;20.10;99.90;;;;;;5047666;28;20612;-71
2021/08/19 11:48:20;;;;;;;5.13;3.80;;;20.20;99.90;;;;;;5047474;28;20730;-70
2021/08/19 11:50:56;;;;;;;6.00;3.90;;;20.20;99.90;;;;;;5047090;28;20315;-71
2021/08/19 11:53:23;;;;;;;6.17;5.57;;;20.10;99.90;;;;;;5047484;28;20223;-71
2021/08/19 11:55:50;;;;;;;6.70;6.00;;;20.00;99.90;;;;;;5047643;28;20215;-72
2021/08/19 11:58:22;;;;;;;5.00;4.03;;;20.10;99.90;;;;;;5047414;28;20662;-71
2021/08/19 12:01:04;;;;;;;5.57;3.90;;;20.00;99.90;;;;;;5047407;28;20235;-71
2021/08/19 12:03:33;;;;;;;5.00;4.07;;;20.00;99.90;;;;;;5035073;28;20201;-71
2021/08/19 12:06:11;;;;;;;5.00;4.03;;;20.00;99.90;;;;;;5027595;28;20217;-71
2021/08/19 12:08:39;;;;;;;8.43;4.60;;;19.90;99.90;;;;;;5026701;28;20663;-71
2021/08/19 12:11:08;;;;;;;4.90;4.03;;;20.00;99.90;;;;;;5027553;28;20266;-71
2021/08/19 12:13:35;;;;;;;5.27;4.23;;;20.00;99.90;;;;;;5027033;28;20676;-71
2021/08/19 12:16:02;;;;;;;4.77;4.20;;;20.10;99.90;;;;;;5046631;28;20208;-71
2021/08/19 12:18:29;;;;;;;3.90;3.70;;;20.20;99.90;;;;;;5041043;28;20467;-71
2021/08/19 12:21:18;;;;;;;5.73;3.80;;;20.30;99.90;;;;;;5036524;28;20258;-71
2021/08/19 12:23:45;;;;;;;4.30;4.00;;;20.40;99.90;;;;;;5039743;28;20197;-71
2021/08/19 12:26:13;;;;;;;6.50;3.93;;;20.50;99.90;;;;;;5047092;28;20638;-70
2021/08/19 12:28:40;;;;;;;6.47;4.40;;;20.70;99.90;;;;;;5047145;28;20239;-70
2021/08/19 12:31:08;;;;;;;4.00;3.60;;;20.90;99.90;;;;;;5046810;28;20615;-71
2021/08/19 12:33:38;;;;;;;5.53;3.93;;;20.90;99.90;;;;;;5039144;28;20700;-70
2021/08/19 12:36:22;;;;;;;4.07;3.70;;;20.90;99.90;;;;;;5034609;28;20299;-71
2021/08/19 12:38:51;;;;;;;3.80;3.50;;;20.80;99.90;;;;;;5035173;28;20184;-70
2021/08/19 12:41:19;;;;;;;5.20;3.97;;;20.90;99.90;;;;;;5035953;28;20206;-70
2021/08/19 12:43:48;;;;;;;4.17;3.77;;;20.90;99.90;;;;;;5035665;28;20197;-71
2021/08/19 12:46:15;;;;;;;4.57;4.17;;;21.00;99.90;;;;;;5047559;28;20277;-71
2021/08/19 12:48:43;;;;;;;4.40;4.00;;;21.30;99.90;;;;;;5030370;28;20220;-71
2021/08/19 12:51:20;;;;;;;3.93;3.53;;;21.40;99.90;;;;;;5040605;28;20220;-72